Dayton, Texas
Current Conditions -  °F | °C
As of 9:55 AM on Friday 28 Nov 2014 (Local Time) from K6R3 Reporting Station
Clear Clear  
Wind Chill: 56°   Ceiling: Unl
Heat Index: 56°   Visibility: 7mi
Dew Point: 48°   Wind: 3mph
Humidity: 76%   Direction: 150°SSE
Pressure: 30.36"   Gusts: NA
Location:  30.04°N, 94.89°W
Report Text: K6R3 281555Z AUTO 15003KT 7SM CLR 13/09 A3036 RMK AO2 T01320090
Loading
Personal Weather Stations






























Interactive Weather Map New forecast layout! Learn more

10-Day Weather Forecast

Advertisements
Track Severe Weather on mobile